createdAt,value
2022-10-11T00:01:47.731Z,5.97
2022-10-11T00:04:14.597Z,7.15
2022-10-11T00:06:43.699Z,5.90
2022-10-11T00:09:15.269Z,6.28
2022-10-11T00:11:42.799Z,7.40
2022-10-11T00:14:09.687Z,8.13
2022-10-11T00:16:38.963Z,6.95
2022-10-11T00:19:05.845Z,9.45
2022-10-11T00:21:32.827Z,6.40
2022-10-11T00:23:59.609Z,7.40
2022-10-11T00:26:26.387Z,8.27
2022-10-11T00:28:53.330Z,6.50
2022-10-11T00:31:20.504Z,6.70
2022-10-11T00:33:47.307Z,8.65
2022-10-11T00:36:16.815Z,6.72
2022-10-11T00:38:44.714Z,10.38
2022-10-11T00:41:11.931Z,6.60
2022-10-11T00:43:38.792Z,8.35
2022-10-11T00:46:30.353Z,8.32
2022-10-11T00:49:01.958Z,6.22
2022-10-11T00:51:57.564Z,5.72
2022-10-11T00:54:26.053Z,9.45
2022-10-11T00:57:14.410Z,5.78
2022-10-11T00:59:44.395Z,5.93
2022-10-11T01:02:11.594Z,5.57
2022-10-11T01:04:38.774Z,6.75
2022-10-11T01:07:05.738Z,5.90
2022-10-11T01:09:32.751Z,6.82
2022-10-11T01:12:01.767Z,6.40
2022-10-11T01:15:13.075Z,9.65
2022-10-11T01:17:55.061Z,8.00
2022-10-11T01:20:37.504Z,8.27
2022-10-11T01:23:22.538Z,7.00
2022-10-11T01:26:13.759Z,7.63
2022-10-11T01:28:51.281Z,5.65
2022-10-11T01:31:27.042Z,9.77
2022-10-11T01:33:59.147Z,5.40
2022-10-11T01:36:47.481Z,11.43
2022-10-11T01:39:24.644Z,8.27
2022-10-11T01:41:54.313Z,11.15
2022-10-11T01:44:21.784Z,10.20
2022-10-11T01:46:48.457Z,12.07
2022-10-11T01:49:15.122Z,9.07
2022-10-11T01:51:48.893Z,9.57
2022-10-11T01:55:08.606Z,12.57
2022-10-11T01:57:39.281Z,10.55
2022-10-11T02:00:22.491Z,10.77
2022-10-11T02:03:11.974Z,9.38
2022-10-11T02:05:53.815Z,10.73
2022-10-11T02:08:50.062Z,9.27
2022-10-11T02:13:57.933Z,9.00
2022-10-11T02:16:28.759Z,13.13
2022-10-11T02:18:56.964Z,11.30
2022-10-11T02:21:24.825Z,8.68
2022-10-11T02:24:01.794Z,10.82
2022-10-11T02:26:31.284Z,13.70
2022-10-11T02:29:01.261Z,6.68
2022-10-11T02:31:29.447Z,9.45
2022-10-11T02:34:06.001Z,10.23
2022-10-11T02:37:04.743Z,14.88
2022-10-11T02:39:41.256Z,13.35
2022-10-11T02:42:15.386Z,10.93
2022-10-11T02:44:45.568Z,13.77
2022-10-11T02:47:12.485Z,9.25
2022-10-11T02:49:39.135Z,15.50
2022-10-11T02:52:06.817Z,14.00
2022-10-11T02:54:33.581Z,12.55
2022-10-11T02:57:00.324Z,12.90
2022-10-11T02:59:26.974Z,12.25
2022-10-11T03:01:53.706Z,12.88
2022-10-11T03:04:20.475Z,8.15
2022-10-11T03:06:47.111Z,6.70
2022-10-11T03:09:13.825Z,9.65
2022-10-11T03:11:40.457Z,10.00
2022-10-11T03:14:07.078Z,9.18
2022-10-11T03:16:33.830Z,10.32
2022-10-11T03:19:00.435Z,8.93
2022-10-11T03:21:27.045Z,9.93
2022-10-11T03:23:53.729Z,8.27
2022-10-11T03:26:20.386Z,11.15
2022-10-11T03:28:47.219Z,12.23
2022-10-11T03:31:14.027Z,11.10
2022-10-11T03:33:40.778Z,12.05
2022-10-11T03:36:09.213Z,12.45
2022-10-11T03:38:36.211Z,12.52
2022-10-11T03:41:02.846Z,14.20
2022-10-11T03:43:29.490Z,9.18
2022-10-11T03:45:56.135Z,13.57
2022-10-11T03:48:22.758Z,10.23
2022-10-11T03:50:49.477Z,10.95
2022-10-11T03:53:16.234Z,12.63
2022-10-11T03:55:42.861Z,12.32
2022-10-11T03:58:09.591Z,11.65
2022-10-11T04:00:36.702Z,8.63
2022-10-11T04:03:06.070Z,15.75
2022-10-11T04:05:32.728Z,9.57
2022-10-11T04:08:02.346Z,12.07
2022-10-11T04:10:29.095Z,9.65
2022-10-11T04:12:55.858Z,9.55
2022-10-11T04:15:22.920Z,11.25
2022-10-11T04:17:49.764Z,12.15
2022-10-11T04:20:16.712Z,13.80
2022-10-11T04:22:43.417Z,16.92
2022-10-11T04:25:10.462Z,19.17
2022-10-11T04:27:37.409Z,17.83
2022-10-11T04:30:05.028Z,17.13
2022-10-11T04:32:31.697Z,19.88
2022-10-11T04:34:58.308Z,21.02
2022-10-11T04:37:24.918Z,20.70
2022-10-11T04:39:51.543Z,17.45
2022-10-11T04:42:18.282Z,17.48
2022-10-11T04:44:44.930Z,18.52
2022-10-11T04:47:11.754Z,15.80
2022-10-11T04:49:38.447Z,16.15
2022-10-11T04:52:05.097Z,15.05
2022-10-11T04:54:32.042Z,13.52
2022-10-11T04:56:58.687Z,16.45
2022-10-11T04:59:25.407Z,12.57
2022-10-11T05:01:52.035Z,12.18
2022-10-11T05:04:19.508Z,13.85
2022-10-11T05:06:46.757Z,10.60
2022-10-11T05:09:13.456Z,14.10
2022-10-11T05:11:40.088Z,18.80
2022-10-11T05:14:06.860Z,10.52
2022-10-11T05:16:33.583Z,14.63
2022-10-11T05:19:00.276Z,11.38
2022-10-11T05:21:28.977Z,12.55
2022-10-11T05:23:56.460Z,14.15
2022-10-11T05:26:24.596Z,9.98
2022-10-11T05:28:51.536Z,13.50
2022-10-11T05:31:18.522Z,15.15
2022-10-11T05:33:45.198Z,14.50
2022-10-11T05:36:12.151Z,17.20
2022-10-11T05:38:39.390Z,14.55
2022-10-11T05:41:06.854Z,16.20
2022-10-11T05:43:33.612Z,14.75
2022-10-11T05:46:00.224Z,14.57
2022-10-11T05:48:28.540Z,19.50
2022-10-11T05:51:03.180Z,19.02
2022-10-11T05:53:30.391Z,19.70
2022-10-11T05:55:57.459Z,17.67
2022-10-11T05:58:24.322Z,15.63
2022-10-11T06:00:51.093Z,16.17
2022-10-11T06:03:18.144Z,18.33
2022-10-11T06:05:44.832Z,18.23
2022-10-11T06:08:11.566Z,22.63
2022-10-11T06:10:39.210Z,15.20
2022-10-11T06:13:06.599Z,18.27
2022-10-11T06:15:34.062Z,14.88
2022-10-11T06:18:00.799Z,16.42
2022-10-11T06:20:27.613Z,14.38
2022-10-11T06:22:54.726Z,18.15
2022-10-11T06:25:21.770Z,19.25
2022-10-11T06:27:48.791Z,15.55
2022-10-11T06:30:15.716Z,19.02
2022-10-11T06:32:42.666Z,13.15
2022-10-11T06:35:09.533Z,11.77
2022-10-11T06:37:36.866Z,13.18
2022-10-11T06:40:04.164Z,9.30
2022-10-11T06:42:30.929Z,12.05
2022-10-11T06:44:57.834Z,13.32
2022-10-11T06:47:24.918Z,10.80
2022-10-11T06:49:51.997Z,11.15
2022-10-11T06:52:18.999Z,9.20
2022-10-11T06:54:45.859Z,5.28
2022-10-11T06:57:12.844Z,7.05
2022-10-11T06:59:39.687Z,8.07
2022-10-11T07:02:06.947Z,8.00
2022-10-11T07:04:34.128Z,5.05
2022-10-11T07:07:01.165Z,5.28
2022-10-11T07:09:28.026Z,6.15
2022-10-11T07:11:54.787Z,5.63
2022-10-11T07:14:21.806Z,5.43
2022-10-11T07:16:48.651Z,4.63
2022-10-11T07:19:15.488Z,4.40
2022-10-11T07:21:42.192Z,2.42
2022-10-11T07:24:09.201Z,3.47
2022-10-11T07:26:38.151Z,2.65
2022-10-11T07:29:06.748Z,3.00
2022-10-11T07:31:33.503Z,2.38
2022-10-11T07:34:00.362Z,3.50
2022-10-11T07:36:27.597Z,3.28
2022-10-11T07:38:55.396Z,4.72
2022-10-11T07:41:22.303Z,4.63
2022-10-11T07:43:49.889Z,4.18
2022-10-11T07:46:17.959Z,4.03
2022-10-11T07:48:44.729Z,2.70
2022-10-11T07:51:14.312Z,3.90
2022-10-11T07:53:51.719Z,3.63
2022-10-11T07:56:24.105Z,3.70
2022-10-11T07:58:52.816Z,4.88
2022-10-11T08:01:20.444Z,7.28
2022-10-11T08:03:47.535Z,4.07
2022-10-11T08:06:17.192Z,2.65
2022-10-11T08:08:44.167Z,4.05
2022-10-11T08:11:11.441Z,3.60
2022-10-11T08:13:38.574Z,3.03
2022-10-11T08:16:12.720Z,2.95
2022-10-11T08:18:40.115Z,2.95
2022-10-11T08:21:11.665Z,2.28
2022-10-11T08:23:38.306Z,4.88
2022-10-11T08:26:05.349Z,2.00
2022-10-11T08:28:32.419Z,3.38
2022-10-11T08:30:59.247Z,4.00
2022-10-11T08:33:26.857Z,2.70
2022-10-11T08:35:55.195Z,1.70
2022-10-11T08:38:21.953Z,3.55
2022-10-11T08:40:51.013Z,2.88
2022-10-11T08:43:50.956Z,2.30
2022-10-11T08:46:24.306Z,2.08
2022-10-11T08:48:51.850Z,3.25
2022-10-11T08:51:25.959Z,7.28
2022-10-11T08:54:13.992Z,3.13
2022-10-11T08:56:41.882Z,2.63
2022-10-11T08:59:11.466Z,2.78
2022-10-11T09:01:45.175Z,3.30
2022-10-11T09:04:16.652Z,2.13
2022-10-11T09:06:48.930Z,4.18
2022-10-11T09:09:53.314Z,3.80
2022-10-11T09:12:44.382Z,2.53
2022-10-11T09:15:25.298Z,4.47
2022-10-11T09:18:19.992Z,3.88
2022-10-11T09:21:13.999Z,5.95
2022-10-11T09:23:58.853Z,2.58
2022-10-11T09:26:38.621Z,5.07
2022-10-11T09:29:31.400Z,2.35
2022-10-11T09:31:58.583Z,3.83
2022-10-11T09:34:34.063Z,6.78
2022-10-11T09:37:07.734Z,3.38
2022-10-11T09:39:36.037Z,3.33
2022-10-11T09:42:08.055Z,3.50
2022-10-11T09:44:40.433Z,3.03
2022-10-11T09:47:10.369Z,3.28
2022-10-11T09:50:05.382Z,5.78
2022-10-11T09:52:33.038Z,2.60
2022-10-11T09:55:01.712Z,4.53
2022-10-11T09:57:33.672Z,3.30
2022-10-11T10:00:06.505Z,4.57
2022-10-11T10:02:44.449Z,4.03
2022-10-11T10:05:11.144Z,4.43
2022-10-11T10:07:41.056Z,3.08
2022-10-11T10:10:34.716Z,3.58
2022-10-11T10:13:04.071Z,4.07
2022-10-11T10:15:33.940Z,4.30
2022-10-11T10:18:00.798Z,3.83
2022-10-11T10:20:33.475Z,3.72
2022-10-11T10:23:04.607Z,4.40
2022-10-11T10:25:43.104Z,3.90
2022-10-11T10:28:26.195Z,3.08
2022-10-11T10:30:59.650Z,4.43
2022-10-11T10:33:30.688Z,4.13
2022-10-11T10:36:03.365Z,3.03
2022-10-11T10:38:37.486Z,4.03
2022-10-11T10:41:11.244Z,2.92
2022-10-11T10:43:39.646Z,3.83
2022-10-11T10:46:25.158Z,3.15
2022-10-11T10:52:06.062Z,4.15
2022-10-11T10:54:38.706Z,4.70
2022-10-11T10:57:33.363Z,4.07
2022-10-11T11:00:15.432Z,4.80
2022-10-11T11:02:58.804Z,4.93
2022-10-11T11:05:25.592Z,7.75
2022-10-11T11:08:00.237Z,6.47
2022-10-11T11:10:45.383Z,7.75
2022-10-11T11:13:25.705Z,4.85
2022-10-11T11:16:11.740Z,6.05
2022-10-11T11:19:20.283Z,4.03
2022-10-11T11:21:52.920Z,5.80
2022-10-11T11:24:29.626Z,6.32
2022-10-11T11:27:13.403Z,5.50
2022-10-11T11:30:08.025Z,6.78
2022-10-11T11:32:50.225Z,4.32
2022-10-11T11:35:33.906Z,5.68
2022-10-11T11:38:49.912Z,5.43
2022-10-11T11:41:25.915Z,5.43
2022-10-11T11:44:12.260Z,4.78
2022-10-11T11:46:44.503Z,5.93
2022-10-11T11:49:19.240Z,4.38
2022-10-11T11:51:46.693Z,4.22
2022-10-11T11:54:22.255Z,3.72
2022-10-11T11:56:51.742Z,4.65
2022-10-11T11:59:31.013Z,6.05
2022-10-11T12:02:38.999Z,5.85
2022-10-11T12:05:07.357Z,3.75
2022-10-11T12:07:51.258Z,4.15
2022-10-11T12:10:50.175Z,4.03
2022-10-11T12:13:35.143Z,3.72
2022-10-11T12:16:09.864Z,4.47
2022-10-11T12:18:51.270Z,5.28
2022-10-11T12:21:38.061Z,6.00
2022-10-11T12:24:57.358Z,4.07
2022-10-11T12:27:43.450Z,3.42
2022-10-11T12:30:47.254Z,3.72
2022-10-11T12:33:21.510Z,3.83
2022-10-11T12:36:04.093Z,4.23
2022-10-11T12:38:40.069Z,4.35
2022-10-11T12:41:09.447Z,5.70
2022-10-11T12:44:13.030Z,3.55
2022-10-11T12:46:42.765Z,3.78
2022-10-11T12:49:31.267Z,2.92
2022-10-11T12:52:01.025Z,3.45
2022-10-11T12:55:05.472Z,2.65
2022-10-11T12:57:47.516Z,3.35
2022-10-11T13:00:31.129Z,3.97
2022-10-11T13:03:29.766Z,3.95
2022-10-11T13:06:01.712Z,3.63
2022-10-11T13:08:35.165Z,2.83
2022-10-11T13:11:06.188Z,4.18
2022-10-11T13:13:37.812Z,3.65
2022-10-11T13:16:20.703Z,3.50
2022-10-11T13:18:49.533Z,4.40
2022-10-11T13:21:23.036Z,4.97
2022-10-11T13:23:55.014Z,5.32
2022-10-11T13:26:21.620Z,3.83
2022-10-11T13:28:48.513Z,5.30
2022-10-11T13:31:15.200Z,4.22
2022-10-11T13:33:42.909Z,4.50
2022-10-11T13:36:16.075Z,4.13
2022-10-11T13:38:51.209Z,3.38
2022-10-11T13:43:45.615Z,4.38
2022-10-11T13:46:19.779Z,3.17
2022-10-11T13:48:46.527Z,4.47
2022-10-11T13:51:16.868Z,4.22
2022-10-11T13:54:09.463Z,5.78
2022-10-11T13:56:46.237Z,2.75
2022-10-11T13:59:21.463Z,2.42
2022-10-11T14:04:17.294Z,4.65
2022-10-11T14:06:58.842Z,4.43
2022-10-11T14:09:34.920Z,3.78
2022-10-11T14:12:31.868Z,5.72
2022-10-11T14:15:03.279Z,4.93
2022-10-11T14:17:40.581Z,3.90
2022-10-11T14:20:40.233Z,3.92
2022-10-11T14:23:07.486Z,4.55
2022-10-11T14:25:34.519Z,5.60
2022-10-11T14:28:01.482Z,3.22
2022-10-11T14:30:31.399Z,3.42
2022-10-11T14:33:01.923Z,4.55
2022-10-11T14:35:32.652Z,5.20
2022-10-11T14:37:59.861Z,2.88
2022-10-11T14:40:29.795Z,7.05
2022-10-11T14:42:57.159Z,4.65
2022-10-11T14:45:23.987Z,6.50
2022-10-11T14:47:53.856Z,4.60
2022-10-11T14:50:48.085Z,7.60
2022-10-11T14:53:15.432Z,11.60
2022-10-11T14:55:43.314Z,6.70
2022-10-11T14:58:12.127Z,7.35
2022-10-11T15:00:38.935Z,6.43
2022-10-11T15:03:07.622Z,7.28
2022-10-11T15:05:35.625Z,12.50
2022-10-11T15:08:06.757Z,13.15
2022-10-11T19:57:02.173Z,33.20
2022-10-11T19:59:28.889Z,37.10
2022-10-11T20:01:55.475Z,42.58
2022-10-11T20:07:08.949Z,30.73
2022-10-11T20:09:35.600Z,35.78
2022-10-11T20:12:02.281Z,32.33
2022-10-11T20:14:28.890Z,24.27
2022-10-11T20:16:55.545Z,30.75
2022-10-11T20:19:27.752Z,26.40
2022-10-11T20:21:57.011Z,30.13
2022-10-11T20:24:23.699Z,23.38
2022-10-11T20:26:50.323Z,26.05
2022-10-11T20:29:16.963Z,28.52
2022-10-11T20:31:43.615Z,28.42
2022-10-11T20:34:10.983Z,27.83
2022-10-11T20:36:37.883Z,27.55
2022-10-11T20:39:05.808Z,29.08
2022-10-11T20:41:39.798Z,27.75
2022-10-11T20:44:07.918Z,27.67
2022-10-11T20:46:37.346Z,28.33
2022-10-11T20:49:09.597Z,33.97
2022-10-11T20:51:38.466Z,25.00
2022-10-11T20:54:05.485Z,25.85
2022-10-11T20:56:32.352Z,29.42
2022-10-11T20:58:59.515Z,27.58
2022-10-11T21:01:29.193Z,27.65
2022-10-11T21:03:57.812Z,25.17
2022-10-11T21:06:24.720Z,25.15
2022-10-11T21:08:51.421Z,27.27
2022-10-11T21:11:18.055Z,24.83
2022-10-11T21:13:44.749Z,22.98
2022-10-11T21:16:13.962Z,26.40
2022-10-11T21:18:40.679Z,28.85
2022-10-11T21:21:09.018Z,24.88
2022-10-11T21:23:35.702Z,20.15
2022-10-11T21:26:08.650Z,26.67
2022-10-11T21:28:35.317Z,22.27
2022-10-11T21:31:09.545Z,23.30
2022-10-11T21:33:37.137Z,24.25
2022-10-11T21:36:08.734Z,24.92
2022-10-11T21:38:37.297Z,24.90
2022-10-11T21:41:05.458Z,25.13
2022-10-11T21:43:38.094Z,21.65
2022-10-11T21:46:11.191Z,23.38
2022-10-11T21:48:38.207Z,25.23
2022-10-11T21:51:05.327Z,24.10
2022-10-11T21:53:32.077Z,22.15
2022-10-11T21:56:01.786Z,24.15
2022-10-11T21:58:28.718Z,22.73
2022-10-11T22:00:55.341Z,21.63
2022-10-11T22:03:22.076Z,24.13
2022-10-11T22:05:48.728Z,21.55
2022-10-11T22:08:15.804Z,22.52
2022-10-11T22:10:53.036Z,23.02
2022-10-11T22:13:19.645Z,24.83
2022-10-11T22:15:46.275Z,24.42
2022-10-11T22:18:12.958Z,25.63
2022-10-11T22:20:39.618Z,29.02
2022-10-11T22:23:06.238Z,24.83
2022-10-11T22:25:36.782Z,24.00
2022-10-11T22:28:03.975Z,23.75
2022-10-11T22:30:31.185Z,27.73
2022-10-11T22:32:57.875Z,26.77
2022-10-11T22:35:24.512Z,29.38
2022-10-11T22:37:51.182Z,25.33
2022-10-11T22:40:18.750Z,28.02
2022-10-11T22:42:45.461Z,29.40
2022-10-11T22:45:12.153Z,18.63
2022-10-11T22:47:38.941Z,24.77
2022-10-11T22:50:05.923Z,17.38
2022-10-11T22:52:32.562Z,21.23
2022-10-11T22:54:59.274Z,20.83
2022-10-11T22:57:25.857Z,26.35
2022-10-11T22:59:52.471Z,17.42
2022-10-11T23:02:19.070Z,16.27
2022-10-11T23:04:45.644Z,18.45
2022-10-11T23:07:12.241Z,18.67
2022-10-11T23:09:38.851Z,18.38
2022-10-11T23:12:05.683Z,20.60
2022-10-11T23:14:32.320Z,16.50
2022-10-11T23:16:58.912Z,14.88
2022-10-11T23:19:25.581Z,17.48
2022-10-11T23:21:52.274Z,13.68
2022-10-11T23:24:18.896Z,17.02
2022-10-11T23:26:45.489Z,18.10
2022-10-11T23:29:12.233Z,13.52
2022-10-11T23:31:38.831Z,16.67
2022-10-11T23:34:05.459Z,14.93
2022-10-11T23:36:32.123Z,14.75
2022-10-11T23:38:59.240Z,13.70
2022-10-11T23:41:27.763Z,14.10
2022-10-11T23:43:54.947Z,18.90
2022-10-11T23:46:21.605Z,13.25
2022-10-11T23:48:48.241Z,17.50
2022-10-11T23:51:15.131Z,15.95
2022-10-11T23:53:42.829Z,14.50
2022-10-11T23:56:11.158Z,15.63
2022-10-11T23:58:38.198Z,19.38
